Cape Sakura — 7JHZ — position and weather

sailwx.info

Track history (hours):
 
Tides and Currents Weather Stations Pressure Air Temp Water Temp Dewpoint Dewpoint Depression Visibility Wind Speed Wind Dir Waves Ship Positions

Cape Sakura

Last reported at 2014-Dec-09 10:24 UTC. Time now 2014-Dec-22 06:20 UTC.
Position S 26°06' E 154°04'.
Warning: this ship's position is 12 days out of date.

Length 292 m; draft 15.7 m.

Type: Cargo ship. MMSI: 432786000.

Date/timePositionNaut miles runAvg speedWind from/ knotsBaromVisibWave heightAir tempDewpointWater temp
2014-Dec-09 10:24S 26°06' E 154°04'18 9.6
2014-Dec-09 08:29S 26°25' E 154°04'9 9.3
2014-Dec-09 07:33S 26°33' E 154°04'9 8.9
2014-Dec-09 06:33S 26°42' E 154°04'9 8.5
2014-Dec-09 05:33S 26°51' E 154°04'10 8.6
2014-Dec-09 04:27S 27°00' E 154°04'8 8.4
2014-Dec-09 03:31S 27°08' E 154°04'9 8.6
2014-Dec-09 02:31S 27°17' E 154°04'11 8.9
2014-Dec-09 01:14S 27°28' E 154°04'6 9.1
2014-Dec-09 00:33S 27°34' E 154°04'9 8.9
2014-Dec-08 23:33S 27°43' E 154°04'9 8.9
2014-Dec-08 22:31S 27°52' E 154°05'28 8.9
2014-Dec-08 19:24S 28°20' E 154°04'9 8.8
2014-Dec-08 18:22S 28°29' E 154°04'208 9.1
2014-Dec-07 19:33S 31°50' E 152°60'1010.5
2014-Dec-07 18:33S 31°60' E 152°56'1711.2
2014-Dec-07 17:04S 32°16' E 152°50'612.6
2014-Dec-07 16:33S 32°22' E 152°48'1212.0
2014-Dec-07 15:33S 32°33' E 152°41'1212.0
2014-Dec-07 14:33S 32°41' E 152°31'1212.2
2014-Dec-07 13:33S 32°48' E 152°19'1212.0
2014-Dec-07 12:33S 32°53' E 152°06'1212.0
2014-Dec-07 11:33S 32°56' E 151°52'5 5.1
2014-Dec-07 10:33S 32°54' E 151°46'2 1.8
2014-Dec-07 09:32S 32°53' E 151°45'0 0.0
2014-Dec-07 08:32S 32°53' E 151°45'0 0.0
2014-Dec-07 07:32S 32°53' E 151°45'0 0.0
2014-Dec-07 06:32S 32°53' E 151°45'0 0.0
2014-Dec-07 05:32S 32°53' E 151°45'0 0.0
2014-Dec-07 04:32S 32°53' E 151°45'0 0.0
2014-Dec-07 03:32S 32°53' E 151°45'0 0.0
2014-Dec-07 02:32S 32°53' E 151°45'0 0.0
2014-Dec-07 01:32S 32°53' E 151°45'0 0.0
2014-Dec-07 00:32S 32°53' E 151°45'0 0.0
2014-Dec-06 23:32S 32°53' E 151°45'0 0.0
2014-Dec-06 22:32S 32°53' E 151°45'0 0.0
2014-Dec-06 21:32S 32°53' E 151°45'0 0.0
2014-Dec-06 20:29S 32°53' E 151°45'0 0.0
2014-Dec-06 19:32S 32°53' E 151°45'0 0.0
2014-Dec-06 18:32S 32°53' E 151°45'0 0.0
2014-Dec-06 17:32S 32°53' E 151°45'0 0.0
2014-Dec-06 16:32S 32°53' E 151°45'0 0.0
2014-Dec-06 15:32S 32°53' E 151°45'0 0.0
2014-Dec-06 14:32S 32°53' E 151°45'0 0.0
2014-Dec-06 13:32S 32°53' E 151°45'0 0.0
2014-Dec-06 12:32S 32°53' E 151°45'0 0.0
2014-Dec-06 11:26S 32°53' E 151°45'0 0.0
2014-Dec-06 10:32S 32°53' E 151°45'0 0.0
2014-Dec-06 09:32S 32°53' E 151°45'0 0.0
2014-Dec-06 08:32S 32°53' E 151°45'0 0.0
2014-Dec-06 07:32S 32°53' E 151°45'0 0.0
2014-Dec-06 06:32S 32°53' E 151°45'0 0.0
2014-Dec-06 05:32S 32°53' E 151°45'0 0.0
2014-Dec-06 04:32S 32°53' E 151°45'0 0.0
2014-Dec-06 03:32S 32°53' E 151°45'0 0.0
2014-Dec-06 02:26S 32°53' E 151°45'0 0.0
2014-Dec-06 01:32S 32°53' E 151°45'0 0.0
2014-Dec-06 00:32S 32°53' E 151°45'0 0.0
2014-Dec-05 23:32S 32°53' E 151°45'0 0.0
2014-Dec-05 22:32S 32°53' E 151°45'0 0.0
2014-Dec-05 21:32S 32°53' E 151°45'0 0.0
2014-Dec-05 20:32S 32°53' E 151°45'0 0.3
2014-Dec-05 19:33S 32°53' E 151°45'3 2.6
2014-Dec-05 18:33S 32°55' E 151°47'9 9.0
2014-Dec-05 17:33S 33°01' E 151°56'5 4.9
2014-Dec-05 16:31S 33°01' E 152°02'1 0.5
2014-Dec-05 15:31S 33°01' E 152°03'0 0.4
2014-Dec-05 14:31S 33°01' E 152°03'0 0.3
2014-Dec-05 13:31S 33°01' E 152°03'2 1.6
2014-Dec-05 12:33S 33°00' E 152°01'8 8.0
2014-Dec-05 11:33S 32°54' E 152°06'1413.5
2014-Dec-05 10:33S 32°47' E 152°20'1413.9
2014-Dec-05 09:33S 32°38' E 152°33'1414.1
2014-Dec-05 08:33S 32°29' E 152°46'1514.8
2014-Dec-05 07:33S 32°15' E 152°51'1515.2
2014-Dec-05 06:33S 32°00' E 152°56'1615.7
2014-Dec-05 05:33S 31°45' E 153°03'24316.2
2014-Dec-04 14:33S 27°49' E 154°04'2417.8
2014-Dec-04 13:14S 27°25' E 154°04'1217.5
2014-Dec-04 12:33S 27°13' E 154°04'1717.5
2014-Dec-04 11:33S 26°55' E 154°04'1717.0
2014-Dec-04 10:33S 26°39' E 154°04'1716.8
2014-Dec-04 09:33S 26°22' E 154°04'1616.3
2014-Dec-04 08:33S 26°06' E 154°04'1615.8
2014-Dec-04 07:33S 25°50' E 154°04'1615.4
2014-Dec-04 06:32S 25°34' E 154°04'  
Track history (hours):
 
Tides and Currents Weather Stations Pressure Air Temp Water Temp Dewpoint Dewpoint Depression Visibility Wind Speed Wind Dir Waves Ship Positions

Cape Sakura

Last reported at 2014-Dec-09 10:24 UTC. Time now 2014-Dec-22 06:20 UTC.
Position S 26°06' E 154°04'.
Warning: this ship's position is 12 days out of date.

Length 292 m; draft 15.7 m.

Type: Cargo ship. MMSI: 432786000.

Date/timePositionNaut miles runAvg speedWind from/ knotsBaromVisibWave heightAir tempDewpointWater temp
2014-Dec-09 10:24S 26°06' E 154°04'18 9.6
2014-Dec-09 08:29S 26°25' E 154°04'9 9.3
2014-Dec-09 07:33S 26°33' E 154°04'9 8.9
2014-Dec-09 06:33S 26°42' E 154°04'9 8.5
2014-Dec-09 05:33S 26°51' E 154°04'10 8.6
2014-Dec-09 04:27S 27°00' E 154°04'8 8.4
2014-Dec-09 03:31S 27°08' E 154°04'9 8.6
2014-Dec-09 02:31S 27°17' E 154°04'11 8.9
2014-Dec-09 01:14S 27°28' E 154°04'6 9.1
2014-Dec-09 00:33S 27°34' E 154°04'9 8.9
2014-Dec-08 23:33S 27°43' E 154°04'9 8.9
2014-Dec-08 22:31S 27°52' E 154°05'28 8.9
2014-Dec-08 19:24S 28°20' E 154°04'9 8.8
2014-Dec-08 18:22S 28°29' E 154°04'208 9.1
2014-Dec-07 19:33S 31°50' E 152°60'1010.5
2014-Dec-07 18:33S 31°60' E 152°56'1711.2
2014-Dec-07 17:04S 32°16' E 152°50'612.6
2014-Dec-07 16:33S 32°22' E 152°48'1212.0
2014-Dec-07 15:33S 32°33' E 152°41'1212.0
2014-Dec-07 14:33S 32°41' E 152°31'1212.2
2014-Dec-07 13:33S 32°48' E 152°19'1212.0
2014-Dec-07 12:33S 32°53' E 152°06'1212.0
2014-Dec-07 11:33S 32°56' E 151°52'5 5.1
2014-Dec-07 10:33S 32°54' E 151°46'2 1.8
2014-Dec-07 09:32S 32°53' E 151°45'0 0.0
2014-Dec-07 08:32S 32°53' E 151°45'0 0.0
2014-Dec-07 07:32S 32°53' E 151°45'0 0.0
2014-Dec-07 06:32S 32°53' E 151°45'0 0.0
2014-Dec-07 05:32S 32°53' E 151°45'0 0.0
2014-Dec-07 04:32S 32°53' E 151°45'0 0.0
2014-Dec-07 03:32S 32°53' E 151°45'0 0.0
2014-Dec-07 02:32S 32°53' E 151°45'0 0.0
2014-Dec-07 01:32S 32°53' E 151°45'0 0.0
2014-Dec-07 00:32S 32°53' E 151°45'0 0.0
2014-Dec-06 23:32S 32°53' E 151°45'0 0.0
2014-Dec-06 22:32S 32°53' E 151°45'0 0.0
2014-Dec-06 21:32S 32°53' E 151°45'0 0.0
2014-Dec-06 20:29S 32°53' E 151°45'0 0.0
2014-Dec-06 19:32S 32°53' E 151°45'0 0.0
2014-Dec-06 18:32S 32°53' E 151°45'0 0.0
2014-Dec-06 17:32S 32°53' E 151°45'0 0.0
2014-Dec-06 16:32S 32°53' E 151°45'0 0.0
2014-Dec-06 15:32S 32°53' E 151°45'0 0.0
2014-Dec-06 14:32S 32°53' E 151°45'0 0.0
2014-Dec-06 13:32S 32°53' E 151°45'0 0.0
2014-Dec-06 12:32S 32°53' E 151°45'0 0.0
2014-Dec-06 11:26S 32°53' E 151°45'0 0.0
2014-Dec-06 10:32S 32°53' E 151°45'0 0.0
2014-Dec-06 09:32S 32°53' E 151°45'0 0.0
2014-Dec-06 08:32S 32°53' E 151°45'0 0.0
2014-Dec-06 07:32S 32°53' E 151°45'0 0.0
2014-Dec-06 06:32S 32°53' E 151°45'0 0.0
2014-Dec-06 05:32S 32°53' E 151°45'0 0.0
2014-Dec-06 04:32S 32°53' E 151°45'0 0.0
2014-Dec-06 03:32S 32°53' E 151°45'0 0.0
2014-Dec-06 02:26S 32°53' E 151°45'0 0.0
2014-Dec-06 01:32S 32°53' E 151°45'0 0.0
2014-Dec-06 00:32S 32°53' E 151°45'0 0.0
2014-Dec-05 23:32S 32°53' E 151°45'0 0.0
2014-Dec-05 22:32S 32°53' E 151°45'0 0.0
2014-Dec-05 21:32S 32°53' E 151°45'0 0.0
2014-Dec-05 20:32S 32°53' E 151°45'0 0.3
2014-Dec-05 19:33S 32°53' E 151°45'3 2.6
2014-Dec-05 18:33S 32°55' E 151°47'9 9.0
2014-Dec-05 17:33S 33°01' E 151°56'5 4.9
2014-Dec-05 16:31S 33°01' E 152°02'1 0.5
2014-Dec-05 15:31S 33°01' E 152°03'0 0.4
2014-Dec-05 14:31S 33°01' E 152°03'0 0.3
2014-Dec-05 13:31S 33°01' E 152°03'2 1.6
2014-Dec-05 12:33S 33°00' E 152°01'8 8.0
2014-Dec-05 11:33S 32°54' E 152°06'1413.5
2014-Dec-05 10:33S 32°47' E 152°20'1413.9
2014-Dec-05 09:33S 32°38' E 152°33'1414.1
2014-Dec-05 08:33S 32°29' E 152°46'1514.8
2014-Dec-05 07:33S 32°15' E 152°51'1515.2
2014-Dec-05 06:33S 32°00' E 152°56'1615.7
2014-Dec-05 05:33S 31°45' E 153°03'24316.2
2014-Dec-04 14:33S 27°49' E 154°04'2417.8
2014-Dec-04 13:14S 27°25' E 154°04'1217.5
2014-Dec-04 12:33S 27°13' E 154°04'1717.5
2014-Dec-04 11:33S 26°55' E 154°04'1717.0
2014-Dec-04 10:33S 26°39' E 154°04'1716.8
2014-Dec-04 09:33S 26°22' E 154°04'1616.3
2014-Dec-04 08:33S 26°06' E 154°04'1615.8
2014-Dec-04 07:33S 25°50' E 154°04'1615.4
2014-Dec-04 06:32S 25°34' E 154°04'  

Dump ship's entire track history